sensor_id;sensor_type;location;lat;lon;timestamp;P1;durP1;ratioP1;P2;durP2;ratioP2
5965;SDS011;3009;43.224;27.976;2023-10-19T00:01:08;2.60;;;2.50;;
5965;SDS011;3009;43.224;27.976;2023-10-19T00:03:38;2.87;;;2.77;;
5965;SDS011;3009;43.224;27.976;2023-10-19T00:06:05;3.17;;;2.80;;
5965;SDS011;3009;43.224;27.976;2023-10-19T00:08:35;2.60;;;2.50;;
5965;SDS011;3009;43.224;27.976;2023-10-19T00:11:07;2.77;;;2.47;;
5965;SDS011;3009;43.224;27.976;2023-10-19T00:13:37;3.60;;;2.60;;
5965;SDS011;3009;43.224;27.976;2023-10-19T00:16:06;3.20;;;3.00;;
5965;SDS011;3009;43.224;27.976;2023-10-19T00:18:44;2.93;;;2.70;;
5965;SDS011;3009;43.224;27.976;2023-10-19T00:21:12;4.00;;;2.70;;
5965;SDS011;3009;43.224;27.976;2023-10-19T00:23:47;2.60;;;2.47;;
5965;SDS011;3009;43.224;27.976;2023-10-19T00:26:18;2.30;;;2.20;;
5965;SDS011;3009;43.224;27.976;2023-10-19T00:28:47;2.50;;;2.30;;
5965;SDS011;3009;43.224;27.976;2023-10-19T00:31:19;7.73;;;2.63;;
5965;SDS011;3009;43.224;27.976;2023-10-19T00:33:48;2.50;;;2.40;;
5965;SDS011;3009;43.224;27.976;2023-10-19T00:36:20;2.70;;;2.50;;
5965;SDS011;3009;43.224;27.976;2023-10-19T00:38:50;2.90;;;2.80;;
5965;SDS011;3009;43.224;27.976;2023-10-19T00:41:21;2.93;;;2.80;;
5965;SDS011;3009;43.224;27.976;2023-10-19T00:43:56;2.57;;;2.37;;
5965;SDS011;3009;43.224;27.976;2023-10-19T00:46:30;3.90;;;2.50;;
5965;SDS011;3009;43.224;27.976;2023-10-19T00:49:05;3.50;;;2.93;;
5965;SDS011;3009;43.224;27.976;2023-10-19T00:51:36;3.20;;;2.53;;
5965;SDS011;3009;43.224;27.976;2023-10-19T00:54:20;3.07;;;2.83;;
5965;SDS011;3009;43.224;27.976;2023-10-19T00:56:53;2.50;;;2.30;;
5965;SDS011;3009;43.224;27.976;2023-10-19T00:59:25;4.20;;;2.30;;
5965;SDS011;3009;43.224;27.976;2023-10-19T01:01:57;2.90;;;2.70;;
5965;SDS011;3009;43.224;27.976;2023-10-19T01:04:43;2.97;;;2.87;;
5965;SDS011;3009;43.224;27.976;2023-10-19T01:07:17;2.63;;;2.43;;
5965;SDS011;3009;43.224;27.976;2023-10-19T01:09:51;2.90;;;2.70;;
5965;SDS011;3009;43.224;27.976;2023-10-19T01:12:23;3.03;;;2.80;;
5965;SDS011;3009;43.224;27.976;2023-10-19T01:15:00;3.53;;;2.80;;
5965;SDS011;3009;43.224;27.976;2023-10-19T01:17:34;3.00;;;2.70;;
5965;SDS011;3009;43.224;27.976;2023-10-19T01:20:07;2.37;;;2.30;;
5965;SDS011;3009;43.224;27.976;2023-10-19T01:22:51;3.07;;;2.80;;
5965;SDS011;3009;43.224;27.976;2023-10-19T01:25:44;7.30;;;2.80;;
5965;SDS011;3009;43.224;27.976;2023-10-19T01:28:17;3.93;;;2.50;;
5965;SDS011;3009;43.224;27.976;2023-10-19T01:30:45;5.70;;;3.20;;
5965;SDS011;3009;43.224;27.976;2023-10-19T01:33:18;2.80;;;2.63;;
5965;SDS011;3009;43.224;27.976;2023-10-19T01:35:47;2.50;;;2.40;;
5965;SDS011;3009;43.224;27.976;2023-10-19T01:38:34;5.10;;;2.40;;
5965;SDS011;3009;43.224;27.976;2023-10-19T01:41:03;2.60;;;2.50;;
5965;SDS011;3009;43.224;27.976;2023-10-19T01:43:33;2.60;;;2.50;;
5965;SDS011;3009;43.224;27.976;2023-10-19T01:46:07;2.80;;;2.60;;
5965;SDS011;3009;43.224;27.976;2023-10-19T01:48:39;2.70;;;2.60;;
5965;SDS011;3009;43.224;27.976;2023-10-19T01:51:09;2.73;;;2.63;;
5965;SDS011;3009;43.224;27.976;2023-10-19T01:53:39;2.70;;;2.60;;
5965;SDS011;3009;43.224;27.976;2023-10-19T01:56:11;3.33;;;2.60;;
5965;SDS011;3009;43.224;27.976;2023-10-19T01:58:40;5.43;;;2.27;;
5965;SDS011;3009;43.224;27.976;2023-10-19T02:01:09;6.13;;;2.87;;
5965;SDS011;3009;43.224;27.976;2023-10-19T02:03:45;2.60;;;2.47;;
5965;SDS011;3009;43.224;27.976;2023-10-19T02:06:15;2.73;;;2.53;;
5965;SDS011;3009;43.224;27.976;2023-10-19T02:08:49;2.33;;;2.33;;
5965;SDS011;3009;43.224;27.976;2023-10-19T02:11:23;4.40;;;3.40;;
5965;SDS011;3009;43.224;27.976;2023-10-19T02:13:53;3.60;;;3.27;;
5965;SDS011;3009;43.224;27.976;2023-10-19T02:16:22;3.67;;;3.03;;
5965;SDS011;3009;43.224;27.976;2023-10-19T02:18:51;3.13;;;2.83;;
5965;SDS011;3009;43.224;27.976;2023-10-19T02:21:19;3.10;;;2.90;;
5965;SDS011;3009;43.224;27.976;2023-10-19T02:23:55;2.60;;;2.50;;
5965;SDS011;3009;43.224;27.976;2023-10-19T02:26:24;3.50;;;3.20;;
5965;SDS011;3009;43.224;27.976;2023-10-19T02:28:54;7.80;;;3.17;;
5965;SDS011;3009;43.224;27.976;2023-10-19T02:31:22;3.57;;;3.10;;
5965;SDS011;3009;43.224;27.976;2023-10-19T02:33:52;4.53;;;2.60;;
5965;SDS011;3009;43.224;27.976;2023-10-19T02:36:25;3.07;;;2.77;;
5965;SDS011;3009;43.224;27.976;2023-10-19T02:38:57;2.90;;;2.33;;
5965;SDS011;3009;43.224;27.976;2023-10-19T02:41:25;2.60;;;2.40;;
5965;SDS011;3009;43.224;27.976;2023-10-19T02:43:55;2.87;;;2.60;;
5965;SDS011;3009;43.224;27.976;2023-10-19T02:46:32;4.73;;;3.13;;
5965;SDS011;3009;43.224;27.976;2023-10-19T02:49:01;3.00;;;2.80;;
5965;SDS011;3009;43.224;27.976;2023-10-19T02:51:29;3.13;;;2.70;;
5965;SDS011;3009;43.224;27.976;2023-10-19T02:53:59;2.50;;;2.40;;
5965;SDS011;3009;43.224;27.976;2023-10-19T02:56:29;2.50;;;2.40;;
5965;SDS011;3009;43.224;27.976;2023-10-19T02:58:56;2.90;;;2.70;;
5965;SDS011;3009;43.224;27.976;2023-10-19T03:01:30;3.63;;;2.50;;
5965;SDS011;3009;43.224;27.976;2023-10-19T03:04:00;3.83;;;3.00;;
5965;SDS011;3009;43.224;27.976;2023-10-19T03:06:31;2.50;;;2.30;;
5965;SDS011;3009;43.224;27.976;2023-10-19T03:09:04;3.53;;;3.00;;
5965;SDS011;3009;43.224;27.976;2023-10-19T03:11:40;4.60;;;2.40;;
5965;SDS011;3009;43.224;27.976;2023-10-19T03:14:08;4.20;;;2.83;;
5965;SDS011;3009;43.224;27.976;2023-10-19T03:16:37;2.47;;;2.37;;
5965;SDS011;3009;43.224;27.976;2023-10-19T03:19:07;2.87;;;2.57;;
5965;SDS011;3009;43.224;27.976;2023-10-19T03:21:36;3.30;;;2.87;;
5965;SDS011;3009;43.224;27.976;2023-10-19T03:24:10;2.60;;;2.40;;
5965;SDS011;3009;43.224;27.976;2023-10-19T03:26:49;10.80;;;2.40;;
5965;SDS011;3009;43.224;27.976;2023-10-19T03:29:17;3.10;;;2.57;;
5965;SDS011;3009;43.224;27.976;2023-10-19T03:31:49;2.73;;;2.30;;
5965;SDS011;3009;43.224;27.976;2023-10-19T03:34:18;3.10;;;2.90;;
5965;SDS011;3009;43.224;27.976;2023-10-19T03:36:48;4.60;;;3.40;;
5965;SDS011;3009;43.224;27.976;2023-10-19T03:39:18;4.97;;;2.50;;
5965;SDS011;3009;43.224;27.976;2023-10-19T03:41:47;3.00;;;2.63;;
5965;SDS011;3009;43.224;27.976;2023-10-19T03:44:18;3.13;;;2.87;;
5965;SDS011;3009;43.224;27.976;2023-10-19T03:46:51;2.90;;;2.70;;
5965;SDS011;3009;43.224;27.976;2023-10-19T03:49:24;5.20;;;2.70;;
5965;SDS011;3009;43.224;27.976;2023-10-19T03:52:01;2.87;;;2.77;;
5965;SDS011;3009;43.224;27.976;2023-10-19T03:54:48;2.80;;;2.67;;
5965;SDS011;3009;43.224;27.976;2023-10-19T03:57:18;2.67;;;2.47;;
5965;SDS011;3009;43.224;27.976;2023-10-19T03:59:49;2.73;;;2.50;;
5965;SDS011;3009;43.224;27.976;2023-10-19T04:02:20;7.33;;;3.30;;
5965;SDS011;3009;43.224;27.976;2023-10-19T04:04:50;11.27;;;2.67;;
5965;SDS011;3009;43.224;27.976;2023-10-19T04:07:19;2.77;;;2.60;;
5965;SDS011;3009;43.224;27.976;2023-10-19T04:09:50;2.80;;;2.60;;
5965;SDS011;3009;43.224;27.976;2023-10-19T04:12:53;4.20;;;2.70;;
5965;SDS011;3009;43.224;27.976;2023-10-19T04:15:22;5.60;;;2.67;;
5965;SDS011;3009;43.224;27.976;2023-10-19T04:17:53;5.70;;;2.63;;
5965;SDS011;3009;43.224;27.976;2023-10-19T04:20:22;9.53;;;2.80;;
5965;SDS011;3009;43.224;27.976;2023-10-19T04:23:02;7.77;;;2.83;;
5965;SDS011;3009;43.224;27.976;2023-10-19T04:25:40;11.50;;;2.80;;
5965;SDS011;3009;43.224;27.976;2023-10-19T04:28:08;17.77;;;3.73;;
5965;SDS011;3009;43.224;27.976;2023-10-19T04:30:37;6.00;;;3.10;;
5965;SDS011;3009;43.224;27.976;2023-10-19T04:33:05;6.57;;;3.53;;
5965;SDS011;3009;43.224;27.976;2023-10-19T04:35:36;3.63;;;2.90;;
5965;SDS011;3009;43.224;27.976;2023-10-19T04:38:08;4.03;;;2.80;;
5965;SDS011;3009;43.224;27.976;2023-10-19T04:40:36;6.00;;;2.47;;
5965;SDS011;3009;43.224;27.976;2023-10-19T04:43:06;10.40;;;3.10;;
5965;SDS011;3009;43.224;27.976;2023-10-19T04:45:34;4.93;;;2.60;;
5965;SDS011;3009;43.224;27.976;2023-10-19T04:48:07;5.93;;;3.00;;
5965;SDS011;3009;43.224;27.976;2023-10-19T04:50:36;7.47;;;2.70;;
5965;SDS011;3009;43.224;27.976;2023-10-19T04:53:06;9.03;;;3.30;;
5965;SDS011;3009;43.224;27.976;2023-10-19T04:55:34;14.40;;;3.30;;
5965;SDS011;3009;43.224;27.976;2023-10-19T04:58:05;6.10;;;3.00;;
5965;SDS011;3009;43.224;27.976;2023-10-19T05:00:34;8.70;;;3.40;;
5965;SDS011;3009;43.224;27.976;2023-10-19T05:03:02;12.13;;;4.30;;
5965;SDS011;3009;43.224;27.976;2023-10-19T05:05:31;15.67;;;3.50;;
5965;SDS011;3009;43.224;27.976;2023-10-19T05:07:59;3.77;;;3.47;;
5965;SDS011;3009;43.224;27.976;2023-10-19T05:10:27;5.90;;;3.50;;
5965;SDS011;3009;43.224;27.976;2023-10-19T05:12:57;19.80;;;4.73;;
5965;SDS011;3009;43.224;27.976;2023-10-19T05:15:26;6.80;;;3.60;;
5965;SDS011;3009;43.224;27.976;2023-10-19T05:17:55;10.23;;;3.20;;
5965;SDS011;3009;43.224;27.976;2023-10-19T05:20:23;4.13;;;3.63;;
5965;SDS011;3009;43.224;27.976;2023-10-19T05:22:52;6.00;;;3.07;;
5965;SDS011;3009;43.224;27.976;2023-10-19T05:25:20;5.30;;;3.20;;
5965;SDS011;3009;43.224;27.976;2023-10-19T05:27:50;13.30;;;3.73;;
5965;SDS011;3009;43.224;27.976;2023-10-19T05:30:18;9.00;;;4.07;;
5965;SDS011;3009;43.224;27.976;2023-10-19T05:32:52;10.03;;;3.43;;
5965;SDS011;3009;43.224;27.976;2023-10-19T05:35:22;11.03;;;3.60;;
5965;SDS011;3009;43.224;27.976;2023-10-19T05:37:52;17.73;;;4.50;;
5965;SDS011;3009;43.224;27.976;2023-10-19T05:40:22;51.00;;;4.70;;
5965;SDS011;3009;43.224;27.976;2023-10-19T05:42:56;38.40;;;5.53;;
5965;SDS011;3009;43.224;27.976;2023-10-19T05:45:27;15.93;;;4.20;;
5965;SDS011;3009;43.224;27.976;2023-10-19T05:47:57;11.70;;;4.33;;
5965;SDS011;3009;43.224;27.976;2023-10-19T05:50:28;17.70;;;4.90;;
5965;SDS011;3009;43.224;27.976;2023-10-19T05:53:30;13.67;;;3.90;;
5965;SDS011;3009;43.224;27.976;2023-10-19T05:56:05;18.60;;;5.47;;
5965;SDS011;3009;43.224;27.976;2023-10-19T05:58:34;11.77;;;4.23;;
5965;SDS011;3009;43.224;27.976;2023-10-19T06:01:06;3.90;;;3.10;;
5965;SDS011;3009;43.224;27.976;2023-10-19T06:03:36;8.40;;;3.60;;
5965;SDS011;3009;43.224;27.976;2023-10-19T06:06:05;6.27;;;3.33;;
5965;SDS011;3009;43.224;27.976;2023-10-19T06:08:34;3.60;;;3.30;;
5965;SDS011;3009;43.224;27.976;2023-10-19T06:11:02;3.73;;;3.20;;
5965;SDS011;3009;43.224;27.976;2023-10-19T06:13:33;3.40;;;3.10;;
5965;SDS011;3009;43.224;27.976;2023-10-19T06:16:02;3.03;;;2.93;;
5965;SDS011;3009;43.224;27.976;2023-10-19T06:18:31;6.07;;;3.00;;
5965;SDS011;3009;43.224;27.976;2023-10-19T06:21:00;3.83;;;3.23;;
5965;SDS011;3009;43.224;27.976;2023-10-19T06:23:30;7.90;;;3.83;;
5965;SDS011;3009;43.224;27.976;2023-10-19T06:25:59;6.57;;;3.67;;
5965;SDS011;3009;43.224;27.976;2023-10-19T06:28:31;5.30;;;3.53;;
5965;SDS011;3009;43.224;27.976;2023-10-19T06:31:05;9.23;;;3.70;;
5965;SDS011;3009;43.224;27.976;2023-10-19T06:33:33;5.30;;;3.93;;
5965;SDS011;3009;43.224;27.976;2023-10-19T06:36:04;18.07;;;3.60;;
5965;SDS011;3009;43.224;27.976;2023-10-19T06:38:33;4.00;;;3.60;;
5965;SDS011;3009;43.224;27.976;2023-10-19T06:41:03;11.17;;;4.07;;
5965;SDS011;3009;43.224;27.976;2023-10-19T06:43:38;5.10;;;3.40;;
5965;SDS011;3009;43.224;27.976;2023-10-19T06:46:07;7.90;;;4.40;;
5965;SDS011;3009;43.224;27.976;2023-10-19T06:48:38;9.63;;;4.80;;
5965;SDS011;3009;43.224;27.976;2023-10-19T06:51:08;7.43;;;3.80;;
5965;SDS011;3009;43.224;27.976;2023-10-19T06:53:38;4.10;;;3.43;;
5965;SDS011;3009;43.224;27.976;2023-10-19T06:56:06;9.57;;;3.50;;
5965;SDS011;3009;43.224;27.976;2023-10-19T06:58:35;3.63;;;3.20;;
5965;SDS011;3009;43.224;27.976;2023-10-19T07:01:07;4.43;;;4.00;;
5965;SDS011;3009;43.224;27.976;2023-10-19T07:03:36;5.50;;;3.30;;
5965;SDS011;3009;43.224;27.976;2023-10-19T07:06:05;14.10;;;3.70;;
5965;SDS011;3009;43.224;27.976;2023-10-19T07:08:41;5.60;;;3.40;;
5965;SDS011;3009;43.224;27.976;2023-10-19T07:11:09;3.30;;;2.83;;
5965;SDS011;3009;43.224;27.976;2023-10-19T07:13:38;3.37;;;3.07;;
5965;SDS011;3009;43.224;27.976;2023-10-19T07:16:10;7.00;;;2.80;;
5965;SDS011;3009;43.224;27.976;2023-10-19T07:18:39;4.50;;;4.10;;
5965;SDS011;3009;43.224;27.976;2023-10-19T07:21:08;4.97;;;4.20;;
5965;SDS011;3009;43.224;27.976;2023-10-19T07:23:38;5.93;;;3.13;;
5965;SDS011;3009;43.224;27.976;2023-10-19T07:26:08;3.70;;;3.40;;
5965;SDS011;3009;43.224;27.976;2023-10-19T07:28:38;4.23;;;3.80;;
5965;SDS011;3009;43.224;27.976;2023-10-19T07:31:06;4.03;;;3.50;;
5965;SDS011;3009;43.224;27.976;2023-10-19T07:33:39;7.33;;;3.90;;
5965;SDS011;3009;43.224;27.976;2023-10-19T07:36:12;4.70;;;3.17;;
5965;SDS011;3009;43.224;27.976;2023-10-19T07:38:42;4.00;;;3.60;;
5965;SDS011;3009;43.224;27.976;2023-10-19T07:41:13;13.40;;;3.60;;
5965;SDS011;3009;43.224;27.976;2023-10-19T07:43:41;4.03;;;3.63;;
5965;SDS011;3009;43.224;27.976;2023-10-19T07:46:11;3.97;;;3.67;;
5965;SDS011;3009;43.224;27.976;2023-10-19T07:48:39;6.67;;;3.93;;
5965;SDS011;3009;43.224;27.976;2023-10-19T07:51:08;5.77;;;3.47;;
5965;SDS011;3009;43.224;27.976;2023-10-19T07:53:37;5.13;;;3.43;;
5965;SDS011;3009;43.224;27.976;2023-10-19T07:56:06;5.90;;;3.37;;
5965;SDS011;3009;43.224;27.976;2023-10-19T07:58:36;4.53;;;3.47;;
5965;SDS011;3009;43.224;27.976;2023-10-19T08:01:06;8.00;;;5.30;;
5965;SDS011;3009;43.224;27.976;2023-10-19T08:03:34;8.63;;;3.90;;
5965;SDS011;3009;43.224;27.976;2023-10-19T08:06:03;9.10;;;4.27;;
5965;SDS011;3009;43.224;27.976;2023-10-19T08:08:33;8.30;;;4.40;;
5965;SDS011;3009;43.224;27.976;2023-10-19T08:11:01;5.70;;;4.03;;
5965;SDS011;3009;43.224;27.976;2023-10-19T08:13:30;6.40;;;4.60;;
5965;SDS011;3009;43.224;27.976;2023-10-19T08:16:00;9.23;;;3.93;;
5965;SDS011;3009;43.224;27.976;2023-10-19T08:18:29;12.33;;;4.50;;
5965;SDS011;3009;43.224;27.976;2023-10-19T08:20:58;6.63;;;4.23;;
5965;SDS011;3009;43.224;27.976;2023-10-19T08:23:26;3.73;;;3.43;;
5965;SDS011;3009;43.224;27.976;2023-10-19T08:25:55;5.53;;;3.63;;
5965;SDS011;3009;43.224;27.976;2023-10-19T08:28:23;5.20;;;3.77;;
5965;SDS011;3009;43.224;27.976;2023-10-19T08:30:52;6.43;;;3.17;;
5965;SDS011;3009;43.224;27.976;2023-10-19T08:33:29;3.50;;;3.10;;
5965;SDS011;3009;43.224;27.976;2023-10-19T08:36:00;6.07;;;3.50;;
5965;SDS011;3009;43.224;27.976;2023-10-19T08:38:29;4.03;;;3.73;;
5965;SDS011;3009;43.224;27.976;2023-10-19T08:40:58;3.27;;;3.00;;
5965;SDS011;3009;43.224;27.976;2023-10-19T08:43:28;3.83;;;3.50;;
5965;SDS011;3009;43.224;27.976;2023-10-19T08:46:00;4.37;;;3.30;;
5965;SDS011;3009;43.224;27.976;2023-10-19T08:48:34;3.50;;;3.30;;
5965;SDS011;3009;43.224;27.976;2023-10-19T08:51:08;3.00;;;2.80;;
5965;SDS011;3009;43.224;27.976;2023-10-19T08:53:37;2.90;;;2.80;;
5965;SDS011;3009;43.224;27.976;2023-10-19T08:56:08;2.70;;;2.60;;
5965;SDS011;3009;43.224;27.976;2023-10-19T08:58:38;3.77;;;3.47;;
5965;SDS011;3009;43.224;27.976;2023-10-19T09:01:07;9.70;;;2.87;;
5965;SDS011;3009;43.224;27.976;2023-10-19T09:03:38;4.53;;;2.63;;
5965;SDS011;3009;43.224;27.976;2023-10-19T09:06:07;3.20;;;2.97;;
5965;SDS011;3009;43.224;27.976;2023-10-19T09:08:39;4.20;;;2.87;;
5965;SDS011;3009;43.224;27.976;2023-10-19T09:11:10;4.60;;;2.70;;
5965;SDS011;3009;43.224;27.976;2023-10-19T09:13:46;7.57;;;3.20;;
5965;SDS011;3009;43.224;27.976;2023-10-19T09:16:17;4.67;;;3.23;;
5965;SDS011;3009;43.224;27.976;2023-10-19T09:18:48;4.00;;;2.40;;
5965;SDS011;3009;43.224;27.976;2023-10-19T09:21:17;3.30;;;3.00;;
5965;SDS011;3009;43.224;27.976;2023-10-19T09:23:52;4.40;;;2.90;;
5965;SDS011;3009;43.224;27.976;2023-10-19T09:26:21;5.80;;;3.63;;
5965;SDS011;3009;43.224;27.976;2023-10-19T09:28:50;2.87;;;2.60;;
5965;SDS011;3009;43.224;27.976;2023-10-19T09:31:20;3.00;;;2.90;;
5965;SDS011;3009;43.224;27.976;2023-10-19T09:33:53;2.93;;;2.73;;
5965;SDS011;3009;43.224;27.976;2023-10-19T09:36:24;3.30;;;3.10;;
5965;SDS011;3009;43.224;27.976;2023-10-19T09:38:54;5.60;;;3.53;;
5965;SDS011;3009;43.224;27.976;2023-10-19T09:41:24;2.83;;;2.67;;
5965;SDS011;3009;43.224;27.976;2023-10-19T09:43:57;3.57;;;3.03;;
5965;SDS011;3009;43.224;27.976;2023-10-19T09:46:31;6.83;;;3.70;;
5965;SDS011;3009;43.224;27.976;2023-10-19T09:49:05;3.30;;;3.10;;
5965;SDS011;3009;43.224;27.976;2023-10-19T09:51:36;4.03;;;3.17;;
5965;SDS011;3009;43.224;27.976;2023-10-19T09:54:07;4.53;;;3.30;;
5965;SDS011;3009;43.224;27.976;2023-10-19T09:56:42;4.17;;;3.27;;
5965;SDS011;3009;43.224;27.976;2023-10-19T09:59:22;6.73;;;2.90;;
5965;SDS011;3009;43.224;27.976;2023-10-19T10:02:04;3.47;;;2.90;;
5965;SDS011;3009;43.224;27.976;2023-10-19T10:04:35;3.00;;;2.83;;
5965;SDS011;3009;43.224;27.976;2023-10-19T10:07:04;5.80;;;2.63;;
5965;SDS011;3009;43.224;27.976;2023-10-19T10:09:34;2.80;;;2.60;;
5965;SDS011;3009;43.224;27.976;2023-10-19T10:12:17;3.10;;;3.00;;
5965;SDS011;3009;43.224;27.976;2023-10-19T10:14:57;20.43;;;3.23;;
5965;SDS011;3009;43.224;27.976;2023-10-19T10:17:28;4.03;;;3.33;;
5965;SDS011;3009;43.224;27.976;2023-10-19T10:23:17;6.27;;;3.73;;
5965;SDS011;3009;43.224;27.976;2023-10-19T10:25:51;4.97;;;3.23;;
5965;SDS011;3009;43.224;27.976;2023-10-19T10:28:21;4.87;;;3.43;;
5965;SDS011;3009;43.224;27.976;2023-10-19T10:33:44;4.30;;;3.47;;
5965;SDS011;3009;43.224;27.976;2023-10-19T10:36:16;11.57;;;3.40;;
5965;SDS011;3009;43.224;27.976;2023-10-19T10:38:46;5.90;;;3.17;;
5965;SDS011;3009;43.224;27.976;2023-10-19T10:41:21;3.13;;;3.03;;
5965;SDS011;3009;43.224;27.976;2023-10-19T10:43:52;3.47;;;3.27;;
5965;SDS011;3009;43.224;27.976;2023-10-19T10:46:22;3.10;;;2.90;;
5965;SDS011;3009;43.224;27.976;2023-10-19T10:48:52;4.60;;;3.10;;
5965;SDS011;3009;43.224;27.976;2023-10-19T10:51:23;3.47;;;3.20;;
5965;SDS011;3009;43.224;27.976;2023-10-19T10:53:54;3.10;;;3.00;;
5965;SDS011;3009;43.224;27.976;2023-10-19T10:56:23;3.03;;;2.80;;
5965;SDS011;3009;43.224;27.976;2023-10-19T10:58:51;3.80;;;3.60;;
5965;SDS011;3009;43.224;27.976;2023-10-19T11:01:28;3.40;;;3.00;;
5965;SDS011;3009;43.224;27.976;2023-10-19T11:04:06;5.40;;;3.10;;
5965;SDS011;3009;43.224;27.976;2023-10-19T11:06:51;6.43;;;3.77;;
5965;SDS011;3009;43.224;27.976;2023-10-19T11:09:22;3.70;;;3.50;;
5965;SDS011;3009;43.224;27.976;2023-10-19T11:11:51;3.50;;;3.30;;
5965;SDS011;3009;43.224;27.976;2023-10-19T11:14:20;3.30;;;3.00;;
5965;SDS011;3009;43.224;27.976;2023-10-19T11:16:51;3.90;;;3.60;;
5965;SDS011;3009;43.224;27.976;2023-10-19T11:19:19;4.60;;;3.43;;
5965;SDS011;3009;43.224;27.976;2023-10-19T11:21:55;3.93;;;3.20;;
5965;SDS011;3009;43.224;27.976;2023-10-19T11:24:26;3.40;;;3.20;;
5965;SDS011;3009;43.224;27.976;2023-10-19T11:27:00;6.20;;;3.60;;
5965;SDS011;3009;43.224;27.976;2023-10-19T11:29:29;4.47;;;3.50;;
5965;SDS011;3009;43.224;27.976;2023-10-19T11:31:57;5.73;;;3.30;;
5965;SDS011;3009;43.224;27.976;2023-10-19T11:34:27;3.40;;;3.30;;
5965;SDS011;3009;43.224;27.976;2023-10-19T11:36:58;5.70;;;3.33;;
5965;SDS011;3009;43.224;27.976;2023-10-19T11:39:29;5.10;;;3.00;;
5965;SDS011;3009;43.224;27.976;2023-10-19T11:41:57;5.17;;;3.23;;
5965;SDS011;3009;43.224;27.976;2023-10-19T11:44:26;3.20;;;3.00;;
5965;SDS011;3009;43.224;27.976;2023-10-19T11:46:55;3.63;;;3.40;;
5965;SDS011;3009;43.224;27.976;2023-10-19T11:49:24;3.17;;;3.03;;
5965;SDS011;3009;43.224;27.976;2023-10-19T11:51:52;3.00;;;2.90;;
5965;SDS011;3009;43.224;27.976;2023-10-19T11:54:23;3.17;;;2.90;;
5965;SDS011;3009;43.224;27.976;2023-10-19T11:56:53;4.87;;;2.90;;
5965;SDS011;3009;43.224;27.976;2023-10-19T11:59:21;4.00;;;3.57;;
5965;SDS011;3009;43.224;27.976;2023-10-19T12:01:50;3.07;;;2.90;;
5965;SDS011;3009;43.224;27.976;2023-10-19T12:04:18;4.53;;;3.20;;
5965;SDS011;3009;43.224;27.976;2023-10-19T12:06:47;4.00;;;3.60;;
5965;SDS011;3009;43.224;27.976;2023-10-19T12:09:15;4.33;;;3.20;;
5965;SDS011;3009;43.224;27.976;2023-10-19T12:11:45;3.37;;;3.17;;
5965;SDS011;3009;43.224;27.976;2023-10-19T12:14:14;3.97;;;3.70;;
5965;SDS011;3009;43.224;27.976;2023-10-19T12:16:43;3.43;;;3.20;;
5965;SDS011;3009;43.224;27.976;2023-10-19T12:19:12;3.27;;;3.17;;
5965;SDS011;3009;43.224;27.976;2023-10-19T12:21:43;7.77;;;3.10;;
5965;SDS011;3009;43.224;27.976;2023-10-19T12:24:12;7.50;;;3.00;;
5965;SDS011;3009;43.224;27.976;2023-10-19T12:26:41;7.30;;;4.47;;
5965;SDS011;3009;43.224;27.976;2023-10-19T12:29:12;3.37;;;3.20;;
5965;SDS011;3009;43.224;27.976;2023-10-19T12:31:44;3.70;;;3.33;;
5965;SDS011;3009;43.224;27.976;2023-10-19T12:34:13;3.67;;;3.37;;
5965;SDS011;3009;43.224;27.976;2023-10-19T12:36:43;2.80;;;2.60;;
5965;SDS011;3009;43.224;27.976;2023-10-19T12:39:13;3.50;;;3.20;;
5965;SDS011;3009;43.224;27.976;2023-10-19T12:42:02;3.20;;;3.00;;
5965;SDS011;3009;43.224;27.976;2023-10-19T12:44:33;5.80;;;2.93;;
5965;SDS011;3009;43.224;27.976;2023-10-19T12:47:06;9.93;;;3.70;;
5965;SDS011;3009;43.224;27.976;2023-10-19T12:49:39;3.43;;;3.17;;
5965;SDS011;3009;43.224;27.976;2023-10-19T12:52:08;4.33;;;2.90;;
5965;SDS011;3009;43.224;27.976;2023-10-19T12:54:37;3.10;;;2.90;;
5965;SDS011;3009;43.224;27.976;2023-10-19T12:57:07;4.80;;;3.23;;
5965;SDS011;3009;43.224;27.976;2023-10-19T12:59:37;3.33;;;3.00;;
5965;SDS011;3009;43.224;27.976;2023-10-19T13:02:06;3.40;;;3.20;;
5965;SDS011;3009;43.224;27.976;2023-10-19T13:04:36;2.97;;;2.87;;
5965;SDS011;3009;43.224;27.976;2023-10-19T13:07:05;3.23;;;3.03;;
5965;SDS011;3009;43.224;27.976;2023-10-19T13:09:33;2.97;;;2.80;;
5965;SDS011;3009;43.224;27.976;2023-10-19T13:12:02;3.20;;;3.00;;
5965;SDS011;3009;43.224;27.976;2023-10-19T13:14:34;3.33;;;3.13;;
5965;SDS011;3009;43.224;27.976;2023-10-19T13:17:04;3.10;;;2.87;;
5965;SDS011;3009;43.224;27.976;2023-10-19T13:19:33;7.20;;;2.97;;
5965;SDS011;3009;43.224;27.976;2023-10-19T13:22:03;5.23;;;3.23;;
5965;SDS011;3009;43.224;27.976;2023-10-19T13:24:34;4.10;;;2.83;;
5965;SDS011;3009;43.224;27.976;2023-10-19T13:27:07;3.90;;;3.23;;
5965;SDS011;3009;43.224;27.976;2023-10-19T13:29:37;4.30;;;3.20;;
5965;SDS011;3009;43.224;27.976;2023-10-19T13:32:10;2.80;;;2.70;;
5965;SDS011;3009;43.224;27.976;2023-10-19T13:34:38;3.20;;;3.00;;
5965;SDS011;3009;43.224;27.976;2023-10-19T13:37:09;4.00;;;3.13;;
5965;SDS011;3009;43.224;27.976;2023-10-19T13:39:38;3.10;;;3.00;;
5965;SDS011;3009;43.224;27.976;2023-10-19T13:42:07;3.23;;;3.00;;
5965;SDS011;3009;43.224;27.976;2023-10-19T13:44:36;3.10;;;3.00;;
5965;SDS011;3009;43.224;27.976;2023-10-19T13:47:05;7.67;;;3.23;;
5965;SDS011;3009;43.224;27.976;2023-10-19T13:49:37;4.37;;;3.23;;
5965;SDS011;3009;43.224;27.976;2023-10-19T13:52:05;3.20;;;2.90;;
5965;SDS011;3009;43.224;27.976;2023-10-19T13:54:35;5.13;;;3.00;;
5965;SDS011;3009;43.224;27.976;2023-10-19T13:57:03;3.97;;;3.30;;
5965;SDS011;3009;43.224;27.976;2023-10-19T13:59:32;3.70;;;3.40;;
5965;SDS011;3009;43.224;27.976;2023-10-19T14:02:01;10.87;;;3.00;;
5965;SDS011;3009;43.224;27.976;2023-10-19T14:04:30;3.77;;;3.07;;
5965;SDS011;3009;43.224;27.976;2023-10-19T14:07:00;4.23;;;3.27;;
5965;SDS011;3009;43.224;27.976;2023-10-19T14:09:29;3.17;;;3.07;;
5965;SDS011;3009;43.224;27.976;2023-10-19T14:11:58;11.60;;;3.67;;
5965;SDS011;3009;43.224;27.976;2023-10-19T14:14:29;9.93;;;3.27;;
5965;SDS011;3009;43.224;27.976;2023-10-19T14:16:58;3.23;;;3.13;;
5965;SDS011;3009;43.224;27.976;2023-10-19T14:19:27;4.33;;;3.07;;
5965;SDS011;3009;43.224;27.976;2023-10-19T14:22:00;3.53;;;3.10;;
5965;SDS011;3009;43.224;27.976;2023-10-19T14:24:29;4.43;;;3.13;;
5965;SDS011;3009;43.224;27.976;2023-10-19T14:26:58;3.60;;;3.40;;
5965;SDS011;3009;43.224;27.976;2023-10-19T14:29:26;3.80;;;2.90;;
5965;SDS011;3009;43.224;27.976;2023-10-19T14:31:55;5.93;;;3.00;;
5965;SDS011;3009;43.224;27.976;2023-10-19T14:34:23;3.70;;;3.40;;
5965;SDS011;3009;43.224;27.976;2023-10-19T14:36:53;4.63;;;3.27;;
5965;SDS011;3009;43.224;27.976;2023-10-19T14:39:23;7.73;;;3.40;;
5965;SDS011;3009;43.224;27.976;2023-10-19T14:41:51;6.03;;;3.47;;
5965;SDS011;3009;43.224;27.976;2023-10-19T14:44:19;3.37;;;3.20;;
5965;SDS011;3009;43.224;27.976;2023-10-19T14:46:48;2.93;;;2.60;;
5965;SDS011;3009;43.224;27.976;2023-10-19T14:49:18;3.83;;;3.40;;
5965;SDS011;3009;43.224;27.976;2023-10-19T14:51:47;11.00;;;4.07;;
5965;SDS011;3009;43.224;27.976;2023-10-19T14:54:15;6.50;;;3.63;;
5965;SDS011;3009;43.224;27.976;2023-10-19T14:56:45;3.83;;;3.63;;
5965;SDS011;3009;43.224;27.976;2023-10-19T14:59:14;7.60;;;3.67;;
5965;SDS011;3009;43.224;27.976;2023-10-19T15:01:42;5.70;;;3.60;;
5965;SDS011;3009;43.224;27.976;2023-10-19T15:04:10;3.40;;;3.10;;
5965;SDS011;3009;43.224;27.976;2023-10-19T15:06:39;3.30;;;3.10;;
5965;SDS011;3009;43.224;27.976;2023-10-19T15:09:08;8.77;;;3.40;;
5965;SDS011;3009;43.224;27.976;2023-10-19T15:11:43;4.60;;;3.23;;
5965;SDS011;3009;43.224;27.976;2023-10-19T15:14:13;3.00;;;2.90;;
5965;SDS011;3009;43.224;27.976;2023-10-19T15:16:42;4.07;;;2.90;;
5965;SDS011;3009;43.224;27.976;2023-10-19T15:19:12;6.23;;;3.50;;
5965;SDS011;3009;43.224;27.976;2023-10-19T15:21:44;3.90;;;3.60;;
5965;SDS011;3009;43.224;27.976;2023-10-19T15:24:13;3.97;;;3.50;;
5965;SDS011;3009;43.224;27.976;2023-10-19T15:26:42;4.47;;;4.07;;
5965;SDS011;3009;43.224;27.976;2023-10-19T15:29:12;7.73;;;4.00;;